createdAt,value
2022-11-24T00:00:19.449Z,86.90
2022-11-24T00:05:23.147Z,86.60
2022-11-24T00:10:26.493Z,86.60
2022-11-24T00:15:31.191Z,86.60
2022-11-24T00:20:34.524Z,86.60
2022-11-24T00:25:37.837Z,86.40
2022-11-24T00:30:42.540Z,86.80
2022-11-24T00:35:46.077Z,86.60
2022-11-24T00:40:49.362Z,86.80
2022-11-24T00:45:54.183Z,86.50
2022-11-24T00:50:58.500Z,86.60
2022-11-24T00:56:03.852Z,86.40
2022-11-24T01:01:09.755Z,86.60
2022-11-24T01:06:13.848Z,86.50
2022-11-24T01:11:18.054Z,86.60
2022-11-24T01:16:24.798Z,86.50
2022-11-24T01:21:28.373Z,86.60
2022-11-24T01:26:31.657Z,86.40
2022-11-24T01:31:37.147Z,86.50
2022-11-24T01:36:40.667Z,86.20
2022-11-24T01:41:43.959Z,86.30
2022-11-24T01:46:50.568Z,86.80
2022-11-24T01:51:56.712Z,86.50
2022-11-24T01:57:01.762Z,86.60
2022-11-24T02:02:06.830Z,86.10
2022-11-24T02:07:10.307Z,86.50
2022-11-24T02:12:13.665Z,86.40
2022-11-24T02:17:18.438Z,86.50
2022-11-24T02:22:25.674Z,86.30
2022-11-24T02:27:30.472Z,86.40
2022-11-24T02:32:34.802Z,86.20
2022-11-24T02:37:38.153Z,86.30
2022-11-24T02:42:44.607Z,86.40
2022-11-24T02:47:47.901Z,86.30
2022-11-24T02:52:51.277Z,86.20
2022-11-24T02:57:56.201Z,86.50
2022-11-24T03:02:59.873Z,86.10
2022-11-24T03:08:03.240Z,86.20
2022-11-24T03:13:07.982Z,85.90
2022-11-24T03:18:11.315Z,86.00
2022-11-24T03:23:14.677Z,86.10
2022-11-24T03:28:19.448Z,86.00
2022-11-24T03:33:22.762Z,85.90
2022-11-24T03:38:26.348Z,85.90
2022-11-24T03:43:31.135Z,85.90
2022-11-24T03:48:34.489Z,86.00
2022-11-24T03:53:37.917Z,85.90
2022-11-24T03:58:42.536Z,85.90
2022-11-24T04:03:45.923Z,85.80
2022-11-24T04:08:49.229Z,85.70
2022-11-24T04:13:53.908Z,86.00
2022-11-24T04:18:57.213Z,85.90
2022-11-24T04:24:00.404Z,85.70
2022-11-24T04:29:05.123Z,85.90
2022-11-24T04:34:08.332Z,86.00
2022-11-24T04:39:23.849Z,86.00
2022-11-24T04:44:30.935Z,85.70
2022-11-24T04:49:34.143Z,85.80
2022-11-24T04:54:38.127Z,85.70
2022-11-24T04:59:42.671Z,85.90
2022-11-24T05:04:46.178Z,86.00
2022-11-24T05:10:07.052Z,85.60
2022-11-24T05:15:12.225Z,85.70
2022-11-24T05:20:15.440Z,85.70
2022-11-24T05:25:18.815Z,85.90
2022-11-24T05:30:23.416Z,85.80
2022-11-24T05:35:26.628Z,85.50
2022-11-24T05:40:29.888Z,85.80
2022-11-24T05:45:34.443Z,85.50
2022-11-24T05:50:37.663Z,85.60
2022-11-24T05:55:41.213Z,85.90
2022-11-24T06:00:45.859Z,85.80
2022-11-24T06:05:49.122Z,85.70
2022-11-24T06:10:52.508Z,86.00
2022-11-24T06:16:00.174Z,85.80
2022-11-24T06:21:10.901Z,85.60
2022-11-24T06:26:14.599Z,85.70
2022-11-24T06:31:19.282Z,85.70
2022-11-24T06:36:22.532Z,85.60
2022-11-24T06:41:25.761Z,85.60
2022-11-24T06:46:30.350Z,85.50
2022-11-24T06:51:33.655Z,85.70
2022-11-24T06:56:37.174Z,85.70
2022-11-24T07:01:41.749Z,85.60
2022-11-24T07:06:45.144Z,85.60
2022-11-24T07:11:48.330Z,85.50
2022-11-24T07:16:52.946Z,85.40
2022-11-24T07:21:56.172Z,85.50
2022-11-24T07:26:59.408Z,85.80
2022-11-24T07:32:05.805Z,85.60
2022-11-24T07:37:09.175Z,85.80
2022-11-24T07:42:12.374Z,85.80
2022-11-24T07:47:17.019Z,85.70
2022-11-24T07:52:20.232Z,85.50
2022-11-24T07:57:23.809Z,85.70
2022-11-24T08:02:28.493Z,85.60
2022-11-24T08:07:31.833Z,85.50
2022-11-24T08:12:34.971Z,85.70
2022-11-24T08:17:39.574Z,85.30
2022-11-24T08:22:42.770Z,85.70
2022-11-24T08:27:45.983Z,85.70
2022-11-24T08:32:50.467Z,85.60
2022-11-24T08:37:53.679Z,85.70
2022-11-24T08:42:58.426Z,85.80
2022-11-24T08:48:03.073Z,85.80
2022-11-24T08:53:06.268Z,85.80
2022-11-24T08:58:09.485Z,85.70
2022-11-24T09:03:14.165Z,85.90
2022-11-24T09:08:17.425Z,85.90
2022-11-24T09:13:20.591Z,85.60
2022-11-24T09:18:29.978Z,85.80
2022-11-24T09:23:33.586Z,85.80
2022-11-24T09:28:36.711Z,85.80
2022-11-24T09:33:41.742Z,85.90
2022-11-24T09:38:44.976Z,85.80
2022-11-24T09:43:51.613Z,85.70
2022-11-24T09:48:58.562Z,85.80
2022-11-24T09:54:03.744Z,86.10
2022-11-24T09:59:08.621Z,85.90
2022-11-24T10:04:16.666Z,86.00
2022-11-24T10:09:24.975Z,85.90
2022-11-24T10:14:36.819Z,85.80
2022-11-24T10:19:45.077Z,85.80
2022-11-24T10:24:59.781Z,85.80
2022-11-24T10:30:02.969Z,85.90
2022-11-24T10:35:15.502Z,85.70
2022-11-24T10:40:48.799Z,85.90
2022-11-24T10:45:46.424Z,85.70
2022-11-24T10:50:54.485Z,85.80
2022-11-24T10:56:01.684Z,86.00
2022-11-24T11:01:20.949Z,85.80
2022-11-24T11:06:26.212Z,85.70
2022-11-24T11:11:29.869Z,85.90
2022-11-24T11:16:37.271Z,85.70
2022-11-24T11:21:41.902Z,85.60
2022-11-24T11:26:45.128Z,85.90
2022-11-24T11:37:32.509Z,85.80
2022-11-24T11:48:08.933Z,85.80
2022-11-24T11:53:18.511Z,85.90
2022-11-24T11:58:36.021Z,86.00
2022-11-24T12:03:48.337Z,85.90
2022-11-24T12:14:29.194Z,85.90
2022-11-24T12:19:39.772Z,85.90
2022-11-24T12:24:50.311Z,85.70
2022-11-24T12:30:08.386Z,85.80
2022-11-24T12:35:17.320Z,86.00
2022-11-24T12:40:26.058Z,85.80
2022-11-24T12:45:34.706Z,85.90
2022-11-24T12:50:38.656Z,86.00
2022-11-24T12:55:43.993Z,85.90
2022-11-24T13:00:55.477Z,85.90
2022-11-24T13:06:00.910Z,85.80
2022-11-24T13:11:27.838Z,86.10
2022-11-24T13:16:38.682Z,85.90
2022-11-24T13:22:12.287Z,86.10
2022-11-24T13:27:41.921Z,85.90
2022-11-24T13:32:59.631Z,86.00
2022-11-24T13:38:02.778Z,86.00
2022-11-24T13:43:22.014Z,86.10
2022-11-24T13:48:39.950Z,86.20
2022-11-24T13:53:46.431Z,85.90
2022-11-24T13:58:50.953Z,86.00
2022-11-24T14:09:32.361Z,86.10
2022-11-24T14:14:35.718Z,86.00
2022-11-24T14:19:38.990Z,86.10
2022-11-24T14:24:45.588Z,86.20
2022-11-24T14:29:56.272Z,86.30
2022-11-24T14:34:59.631Z,86.20
2022-11-24T14:40:04.309Z,86.20
2022-11-24T14:45:07.989Z,86.10
2022-11-24T14:50:12.945Z,85.80
2022-11-24T14:55:30.795Z,86.00
2022-11-24T15:00:34.340Z,86.30
2022-11-24T15:05:53.720Z,86.20
2022-11-24T15:11:00.054Z,86.40
2022-11-24T15:16:04.443Z,86.30
2022-11-24T15:21:07.810Z,86.50
2022-11-24T15:26:36.685Z,86.20
2022-11-24T15:31:45.319Z,86.40
2022-11-24T15:36:51.031Z,86.30
2022-11-24T15:41:55.629Z,86.30
2022-11-24T15:46:58.879Z,86.30
2022-11-24T15:52:02.194Z,86.20
2022-11-24T15:57:06.809Z,86.20
2022-11-24T16:02:10.264Z,86.20
2022-11-24T16:07:13.920Z,86.20
2022-11-24T16:12:19.916Z,86.30
2022-11-24T16:17:23.064Z,86.10
2022-11-24T16:22:26.303Z,86.30
2022-11-24T16:27:30.872Z,86.30
2022-11-24T16:32:34.018Z,86.20
2022-11-24T16:37:37.233Z,86.20
2022-11-24T16:42:41.909Z,86.40
2022-11-24T16:47:45.128Z,86.30
2022-11-24T16:52:48.349Z,86.30
2022-11-24T16:57:52.921Z,86.30
2022-11-24T17:02:56.161Z,86.30
2022-11-24T17:07:59.716Z,86.40
2022-11-24T17:13:04.596Z,86.30
2022-11-24T17:18:24.868Z,86.40
2022-11-24T17:23:29.111Z,86.40
2022-11-24T17:28:33.729Z,86.40
2022-11-24T17:33:37.246Z,86.40
2022-11-24T17:38:40.399Z,86.20
2022-11-24T17:43:45.059Z,86.50
2022-11-24T17:48:48.332Z,86.40
2022-11-24T17:53:53.661Z,86.30
2022-11-24T17:58:58.943Z,86.20
2022-11-24T18:04:02.296Z,86.50
2022-11-24T18:09:05.632Z,86.30
2022-11-24T18:14:11.073Z,86.20
2022-11-24T18:19:14.360Z,86.30
2022-11-24T18:24:22.669Z,86.30
2022-11-24T18:29:28.810Z,86.40
2022-11-24T18:34:32.127Z,86.40
2022-11-24T18:39:35.479Z,86.30
2022-11-24T18:44:40.172Z,86.40
2022-11-24T18:49:43.469Z,86.40
2022-11-24T18:54:46.703Z,86.40
2022-11-24T18:59:51.284Z,86.40
2022-11-24T19:04:54.528Z,86.30
2022-11-24T19:09:57.788Z,86.30
2022-11-24T19:15:02.396Z,86.70
2022-11-24T19:20:05.995Z,86.50
2022-11-24T19:25:09.729Z,86.40
2022-11-24T19:30:14.643Z,86.60
2022-11-24T19:35:18.019Z,86.30
2022-11-24T19:40:21.215Z,86.60
2022-11-24T19:45:25.846Z,86.10
2022-11-24T19:50:29.076Z,86.30
2022-11-24T19:55:32.237Z,86.60
2022-11-24T20:00:36.863Z,86.70
2022-11-24T20:05:40.085Z,86.70
2022-11-24T20:10:43.330Z,86.70
2022-11-24T20:15:47.903Z,86.70
2022-11-24T20:20:51.110Z,86.50
2022-11-24T20:25:54.344Z,86.60
2022-11-24T20:31:01.713Z,86.50
2022-11-24T20:36:05.683Z,86.60
2022-11-24T20:41:09.665Z,86.60
2022-11-24T20:46:15.259Z,86.60
2022-11-24T20:51:20.908Z,86.70
2022-11-24T20:56:25.355Z,86.50
2022-11-24T21:01:31.072Z,86.60
2022-11-24T21:06:34.310Z,86.70
2022-11-24T21:11:37.733Z,86.50
2022-11-24T21:16:43.216Z,86.60
2022-11-24T21:21:48.917Z,86.80
2022-11-24T21:26:53.048Z,86.80
2022-11-24T21:31:58.105Z,86.40
2022-11-24T21:37:01.372Z,86.70
2022-11-24T21:42:04.573Z,86.80
2022-11-24T21:47:09.232Z,86.60
2022-11-24T21:52:12.403Z,86.40
2022-11-24T21:57:15.569Z,86.60
2022-11-24T22:02:20.158Z,86.30
2022-11-24T22:07:23.399Z,86.40
2022-11-24T22:12:26.512Z,86.60
2022-11-24T22:17:32.696Z,86.60
2022-11-24T22:22:35.840Z,86.70
2022-11-24T22:27:39.374Z,86.70
2022-11-24T22:32:43.876Z,86.80
2022-11-24T22:37:47.000Z,86.80
2022-11-24T22:42:50.731Z,86.70
2022-11-24T22:47:56.243Z,86.90
2022-11-24T22:52:59.494Z,86.60
2022-11-24T22:58:02.605Z,86.50
2022-11-24T23:03:07.209Z,86.60
2022-11-24T23:08:10.453Z,86.70
2022-11-24T23:13:13.733Z,86.60
2022-11-24T23:18:18.428Z,86.60
2022-11-24T23:23:21.608Z,86.40
2022-11-24T23:28:24.851Z,86.50
2022-11-24T23:33:29.472Z,86.70
2022-11-24T23:38:33.527Z,86.50
2022-11-24T23:43:37.190Z,86.60
2022-11-24T23:48:41.955Z,86.70
2022-11-24T23:53:45.627Z,86.60
2022-11-24T23:58:48.929Z,86.50
